sensor_id;sensor_type;location;lat;lon;timestamp;P1;durP1;ratioP1;P2;durP2;ratioP2
60088;SDS011;45961;53.574;55.878;2023-04-16T00:00:09;11.95;;;3.00;;
60088;SDS011;45961;53.574;55.878;2023-04-16T00:01:13;7.68;;;2.90;;
60088;SDS011;45961;53.574;55.878;2023-04-16T00:02:15;5.55;;;2.35;;
60088;SDS011;45961;53.574;55.878;2023-04-16T00:03:16;4.28;;;2.58;;
60088;SDS011;45961;53.574;55.878;2023-04-16T00:04:17;6.18;;;2.03;;
60088;SDS011;45961;53.574;55.878;2023-04-16T00:05:18;4.78;;;2.63;;
60088;SDS011;45961;53.574;55.878;2023-04-16T00:06:19;4.65;;;2.30;;
60088;SDS011;45961;53.574;55.878;2023-04-16T00:07:19;3.70;;;2.63;;
60088;SDS011;45961;53.574;55.878;2023-04-16T00:08:21;5.22;;;2.70;;
60088;SDS011;45961;53.574;55.878;2023-04-16T00:09:25;3.45;;;2.17;;
60088;SDS011;45961;53.574;55.878;2023-04-16T00:10:26;4.05;;;2.13;;
60088;SDS011;45961;53.574;55.878;2023-04-16T00:11:27;5.28;;;2.50;;
60088;SDS011;45961;53.574;55.878;2023-04-16T00:12:28;4.18;;;2.28;;
60088;SDS011;45961;53.574;55.878;2023-04-16T00:13:29;3.53;;;2.20;;
60088;SDS011;45961;53.574;55.878;2023-04-16T00:14:30;4.47;;;2.50;;
60088;SDS011;45961;53.574;55.878;2023-04-16T00:15:31;2.83;;;2.25;;
60088;SDS011;45961;53.574;55.878;2023-04-16T00:16:32;3.28;;;2.35;;
60088;SDS011;45961;53.574;55.878;2023-04-16T00:17:33;5.05;;;3.35;;
60088;SDS011;45961;53.574;55.878;2023-04-16T00:18:34;6.22;;;3.20;;
60088;SDS011;45961;53.574;55.878;2023-04-16T00:20:36;6.43;;;2.60;;
60088;SDS011;45961;53.574;55.878;2023-04-16T00:21:37;3.97;;;2.05;;
60088;SDS011;45961;53.574;55.878;2023-04-16T00:22:38;13.02;;;3.58;;
60088;SDS011;45961;53.574;55.878;2023-04-16T00:23:39;6.60;;;2.55;;
60088;SDS011;45961;53.574;55.878;2023-04-16T00:24:40;7.13;;;2.40;;
60088;SDS011;45961;53.574;55.878;2023-04-16T00:26:42;4.35;;;2.15;;
60088;SDS011;45961;53.574;55.878;2023-04-16T00:27:45;2.95;;;1.67;;
60088;SDS011;45961;53.574;55.878;2023-04-16T00:28:46;4.80;;;2.33;;
60088;SDS011;45961;53.574;55.878;2023-04-16T00:29:47;3.42;;;2.05;;
60088;SDS011;45961;53.574;55.878;2023-04-16T00:31:49;5.25;;;2.30;;
60088;SDS011;45961;53.574;55.878;2023-04-16T00:32:50;3.45;;;2.28;;
60088;SDS011;45961;53.574;55.878;2023-04-16T00:33:52;5.93;;;1.88;;
60088;SDS011;45961;53.574;55.878;2023-04-16T00:35:54;4.70;;;2.10;;
60088;SDS011;45961;53.574;55.878;2023-04-16T00:36:55;5.20;;;2.10;;
60088;SDS011;45961;53.574;55.878;2023-04-16T00:37:56;3.10;;;2.15;;
60088;SDS011;45961;53.574;55.878;2023-04-16T00:38:57;4.97;;;2.42;;
60088;SDS011;45961;53.574;55.878;2023-04-16T00:39:58;5.22;;;2.35;;
60088;SDS011;45961;53.574;55.878;2023-04-16T00:40:59;4.20;;;1.92;;
60088;SDS011;45961;53.574;55.878;2023-04-16T00:42:00;5.88;;;2.42;;
60088;SDS011;45961;53.574;55.878;2023-04-16T00:43:01;7.70;;;2.50;;
60088;SDS011;45961;53.574;55.878;2023-04-16T00:44:02;4.03;;;2.10;;
60088;SDS011;45961;53.574;55.878;2023-04-16T00:45:04;4.43;;;2.47;;
60088;SDS011;45961;53.574;55.878;2023-04-16T00:46:05;4.03;;;2.13;;
60088;SDS011;45961;53.574;55.878;2023-04-16T00:48:07;4.93;;;2.50;;
60088;SDS011;45961;53.574;55.878;2023-04-16T00:49:08;3.50;;;2.28;;
60088;SDS011;45961;53.574;55.878;2023-04-16T00:50:10;6.07;;;2.15;;
60088;SDS011;45961;53.574;55.878;2023-04-16T00:51:11;5.97;;;2.05;;
60088;SDS011;45961;53.574;55.878;2023-04-16T00:52:12;4.80;;;2.17;;
60088;SDS011;45961;53.574;55.878;2023-04-16T00:53:14;4.80;;;2.20;;
60088;SDS011;45961;53.574;55.878;2023-04-16T00:54:16;4.45;;;2.30;;
60088;SDS011;45961;53.574;55.878;2023-04-16T00:55:17;3.80;;;2.00;;
60088;SDS011;45961;53.574;55.878;2023-04-16T00:56:19;3.92;;;2.30;;
60088;SDS011;45961;53.574;55.878;2023-04-16T00:57:23;5.78;;;1.88;;
60088;SDS011;45961;53.574;55.878;2023-04-16T00:58:24;4.68;;;2.30;;
60088;SDS011;45961;53.574;55.878;2023-04-16T01:00:27;5.63;;;2.20;;
60088;SDS011;45961;53.574;55.878;2023-04-16T01:01:28;4.45;;;1.85;;
60088;SDS011;45961;53.574;55.878;2023-04-16T01:02:28;5.03;;;2.00;;
60088;SDS011;45961;53.574;55.878;2023-04-16T01:03:50;2.60;;;2.00;;
60088;SDS011;45961;53.574;55.878;2023-04-16T01:04:50;3.40;;;2.10;;
60088;SDS011;45961;53.574;55.878;2023-04-16T01:05:51;3.38;;;1.95;;
60088;SDS011;45961;53.574;55.878;2023-04-16T01:06:53;5.15;;;2.10;;
60088;SDS011;45961;53.574;55.878;2023-04-16T01:07:55;3.28;;;1.65;;
60088;SDS011;45961;53.574;55.878;2023-04-16T01:08:59;3.45;;;2.28;;
60088;SDS011;45961;53.574;55.878;2023-04-16T01:10:00;4.15;;;1.80;;
60088;SDS011;45961;53.574;55.878;2023-04-16T01:11:01;4.35;;;1.90;;
60088;SDS011;45961;53.574;55.878;2023-04-16T01:13:03;5.50;;;2.42;;
60088;SDS011;45961;53.574;55.878;2023-04-16T01:15:06;3.28;;;2.03;;
60088;SDS011;45961;53.574;55.878;2023-04-16T01:16:09;5.75;;;2.13;;
60088;SDS011;45961;53.574;55.878;2023-04-16T01:17:11;5.20;;;2.17;;
60088;SDS011;45961;53.574;55.878;2023-04-16T01:18:16;4.88;;;1.90;;
60088;SDS011;45961;53.574;55.878;2023-04-16T01:19:18;3.42;;;2.17;;
60088;SDS011;45961;53.574;55.878;2023-04-16T01:20:19;5.70;;;2.30;;
60088;SDS011;45961;53.574;55.878;2023-04-16T01:21:19;3.55;;;2.28;;
60088;SDS011;45961;53.574;55.878;2023-04-16T01:22:21;3.03;;;1.90;;
60088;SDS011;45961;53.574;55.878;2023-04-16T01:23:21;3.85;;;1.67;;
60088;SDS011;45961;53.574;55.878;2023-04-16T01:25:24;3.10;;;1.70;;
60088;SDS011;45961;53.574;55.878;2023-04-16T01:26:25;4.70;;;1.85;;
60088;SDS011;45961;53.574;55.878;2023-04-16T01:27:26;3.83;;;2.20;;
60088;SDS011;45961;53.574;55.878;2023-04-16T01:28:27;2.85;;;2.10;;
60088;SDS011;45961;53.574;55.878;2023-04-16T01:29:28;2.97;;;2.00;;
60088;SDS011;45961;53.574;55.878;2023-04-16T01:30:31;4.53;;;1.88;;
60088;SDS011;45961;53.574;55.878;2023-04-16T01:31:50;2.97;;;1.88;;
60088;SDS011;45961;53.574;55.878;2023-04-16T01:33:05;3.95;;;2.15;;
60088;SDS011;45961;53.574;55.878;2023-04-16T01:34:06;3.95;;;2.35;;
60088;SDS011;45961;53.574;55.878;2023-04-16T01:35:08;3.60;;;2.20;;
60088;SDS011;45961;53.574;55.878;2023-04-16T01:36:09;3.47;;;2.00;;
60088;SDS011;45961;53.574;55.878;2023-04-16T01:37:10;3.17;;;1.80;;
60088;SDS011;45961;53.574;55.878;2023-04-16T01:38:11;3.58;;;1.83;;
60088;SDS011;45961;53.574;55.878;2023-04-16T01:39:12;3.42;;;1.98;;
60088;SDS011;45961;53.574;55.878;2023-04-16T01:40:16;6.85;;;1.92;;
60088;SDS011;45961;53.574;55.878;2023-04-16T01:41:17;5.90;;;2.13;;
60088;SDS011;45961;53.574;55.878;2023-04-16T01:42:19;5.13;;;2.17;;
60088;SDS011;45961;53.574;55.878;2023-04-16T01:43:20;3.92;;;2.85;;
60088;SDS011;45961;53.574;55.878;2023-04-16T01:44:20;7.07;;;2.05;;
60088;SDS011;45961;53.574;55.878;2023-04-16T01:45:22;4.40;;;2.08;;
60088;SDS011;45961;53.574;55.878;2023-04-16T01:46:26;3.72;;;2.17;;
60088;SDS011;45961;53.574;55.878;2023-04-16T01:47:28;3.05;;;1.83;;
60088;SDS011;45961;53.574;55.878;2023-04-16T01:48:29;5.00;;;2.78;;
60088;SDS011;45961;53.574;55.878;2023-04-16T01:49:31;3.65;;;2.13;;
60088;SDS011;45961;53.574;55.878;2023-04-16T01:50:33;3.40;;;2.13;;
60088;SDS011;45961;53.574;55.878;2023-04-16T01:51:34;3.55;;;2.00;;
60088;SDS011;45961;53.574;55.878;2023-04-16T01:52:35;5.10;;;2.13;;
60088;SDS011;45961;53.574;55.878;2023-04-16T01:53:36;4.90;;;2.20;;
60088;SDS011;45961;53.574;55.878;2023-04-16T01:54:37;2.65;;;1.75;;
60088;SDS011;45961;53.574;55.878;2023-04-16T01:55:38;8.10;;;2.00;;
60088;SDS011;45961;53.574;55.878;2023-04-16T01:56:39;2.90;;;1.70;;
60088;SDS011;45961;53.574;55.878;2023-04-16T01:57:40;8.13;;;1.90;;
60088;SDS011;45961;53.574;55.878;2023-04-16T01:58:41;3.65;;;1.85;;
60088;SDS011;45961;53.574;55.878;2023-04-16T01:59:42;5.20;;;1.65;;
60088;SDS011;45961;53.574;55.878;2023-04-16T02:00:43;3.20;;;2.28;;
60088;SDS011;45961;53.574;55.878;2023-04-16T02:01:44;3.65;;;2.00;;
60088;SDS011;45961;53.574;55.878;2023-04-16T02:02:46;4.72;;;2.25;;
60088;SDS011;45961;53.574;55.878;2023-04-16T02:03:57;9.60;;;2.05;;
60088;SDS011;45961;53.574;55.878;2023-04-16T02:04:58;2.72;;;2.20;;
60088;SDS011;45961;53.574;55.878;2023-04-16T02:05:59;5.15;;;2.03;;
60088;SDS011;45961;53.574;55.878;2023-04-16T02:07:03;4.93;;;1.95;;
60088;SDS011;45961;53.574;55.878;2023-04-16T02:08:04;5.53;;;2.30;;
60088;SDS011;45961;53.574;55.878;2023-04-16T02:10:07;4.15;;;1.98;;
60088;SDS011;45961;53.574;55.878;2023-04-16T02:11:10;3.00;;;1.92;;
60088;SDS011;45961;53.574;55.878;2023-04-16T02:12:12;7.22;;;2.15;;
60088;SDS011;45961;53.574;55.878;2023-04-16T02:13:13;4.18;;;2.33;;
60088;SDS011;45961;53.574;55.878;2023-04-16T02:14:16;5.20;;;2.38;;
60088;SDS011;45961;53.574;55.878;2023-04-16T02:16:18;3.92;;;2.10;;
60088;SDS011;45961;53.574;55.878;2023-04-16T02:17:45;4.35;;;1.95;;
60088;SDS011;45961;53.574;55.878;2023-04-16T02:18:48;4.75;;;2.20;;
60088;SDS011;45961;53.574;55.878;2023-04-16T02:19:51;3.95;;;2.17;;
60088;SDS011;45961;53.574;55.878;2023-04-16T02:20:53;3.78;;;2.03;;
60088;SDS011;45961;53.574;55.878;2023-04-16T02:21:54;3.55;;;2.00;;
60088;SDS011;45961;53.574;55.878;2023-04-16T02:22:55;6.45;;;2.10;;
60088;SDS011;45961;53.574;55.878;2023-04-16T02:23:57;4.53;;;2.15;;
60088;SDS011;45961;53.574;55.878;2023-04-16T02:25:02;2.38;;;1.90;;
60088;SDS011;45961;53.574;55.878;2023-04-16T02:26:03;4.35;;;2.38;;
60088;SDS011;45961;53.574;55.878;2023-04-16T02:27:04;3.28;;;2.03;;
60088;SDS011;45961;53.574;55.878;2023-04-16T02:28:06;4.95;;;2.08;;
60088;SDS011;45961;53.574;55.878;2023-04-16T02:29:13;4.75;;;2.40;;
60088;SDS011;45961;53.574;55.878;2023-04-16T02:30:20;2.10;;;1.70;;
60088;SDS011;45961;53.574;55.878;2023-04-16T02:31:21;4.47;;;2.10;;
60088;SDS011;45961;53.574;55.878;2023-04-16T02:32:23;3.95;;;1.95;;
60088;SDS011;45961;53.574;55.878;2023-04-16T02:33:24;2.70;;;2.38;;
60088;SDS011;45961;53.574;55.878;2023-04-16T02:34:34;3.95;;;2.25;;
60088;SDS011;45961;53.574;55.878;2023-04-16T02:35:36;5.55;;;1.92;;
60088;SDS011;45961;53.574;55.878;2023-04-16T02:36:39;4.35;;;2.33;;
60088;SDS011;45961;53.574;55.878;2023-04-16T02:37:40;4.55;;;1.85;;
60088;SDS011;45961;53.574;55.878;2023-04-16T02:38:41;3.58;;;2.25;;
60088;SDS011;45961;53.574;55.878;2023-04-16T02:40:43;3.42;;;2.15;;
60088;SDS011;45961;53.574;55.878;2023-04-16T02:41:48;2.53;;;1.70;;
60088;SDS011;45961;53.574;55.878;2023-04-16T02:42:48;2.65;;;1.80;;
60088;SDS011;45961;53.574;55.878;2023-04-16T02:43:50;2.45;;;1.60;;
60088;SDS011;45961;53.574;55.878;2023-04-16T02:45:52;4.97;;;2.00;;
60088;SDS011;45961;53.574;55.878;2023-04-16T02:46:52;3.17;;;1.70;;
60088;SDS011;45961;53.574;55.878;2023-04-16T02:47:53;2.60;;;1.83;;
60088;SDS011;45961;53.574;55.878;2023-04-16T02:48:54;3.47;;;1.98;;
60088;SDS011;45961;53.574;55.878;2023-04-16T02:49:55;5.20;;;2.20;;
60088;SDS011;45961;53.574;55.878;2023-04-16T02:50:56;3.42;;;2.08;;
60088;SDS011;45961;53.574;55.878;2023-04-16T02:51:57;4.13;;;2.05;;
60088;SDS011;45961;53.574;55.878;2023-04-16T02:52:59;2.75;;;1.65;;
60088;SDS011;45961;53.574;55.878;2023-04-16T02:54:00;2.28;;;1.58;;
60088;SDS011;45961;53.574;55.878;2023-04-16T02:55:03;4.53;;;1.88;;
60088;SDS011;45961;53.574;55.878;2023-04-16T02:56:04;3.22;;;1.77;;
60088;SDS011;45961;53.574;55.878;2023-04-16T02:57:05;3.00;;;2.13;;
60088;SDS011;45961;53.574;55.878;2023-04-16T02:58:06;3.08;;;1.73;;
60088;SDS011;45961;53.574;55.878;2023-04-16T02:59:08;2.85;;;1.80;;
60088;SDS011;45961;53.574;55.878;2023-04-16T03:00:09;2.28;;;1.88;;
60088;SDS011;45961;53.574;55.878;2023-04-16T03:01:10;3.17;;;1.90;;
60088;SDS011;45961;53.574;55.878;2023-04-16T03:03:13;4.28;;;1.98;;
60088;SDS011;45961;53.574;55.878;2023-04-16T03:04:14;5.00;;;1.83;;
60088;SDS011;45961;53.574;55.878;2023-04-16T03:05:15;4.53;;;2.15;;
60088;SDS011;45961;53.574;55.878;2023-04-16T03:06:16;5.20;;;1.83;;
60088;SDS011;45961;53.574;55.878;2023-04-16T03:07:17;3.17;;;1.83;;
60088;SDS011;45961;53.574;55.878;2023-04-16T03:08:18;4.25;;;1.98;;
60088;SDS011;45961;53.574;55.878;2023-04-16T03:09:19;3.95;;;1.88;;
60088;SDS011;45961;53.574;55.878;2023-04-16T03:10:20;4.90;;;1.98;;
60088;SDS011;45961;53.574;55.878;2023-04-16T03:11:21;3.33;;;1.83;;
60088;SDS011;45961;53.574;55.878;2023-04-16T03:12:23;2.25;;;1.67;;
60088;SDS011;45961;53.574;55.878;2023-04-16T03:13:24;2.92;;;1.75;;
60088;SDS011;45961;53.574;55.878;2023-04-16T03:14:25;5.53;;;2.50;;
60088;SDS011;45961;53.574;55.878;2023-04-16T03:15:26;3.85;;;2.03;;
60088;SDS011;45961;53.574;55.878;2023-04-16T03:16:27;4.15;;;2.22;;
60088;SDS011;45961;53.574;55.878;2023-04-16T03:17:28;5.65;;;2.95;;
60088;SDS011;45961;53.574;55.878;2023-04-16T03:19:30;3.85;;;2.08;;
60088;SDS011;45961;53.574;55.878;2023-04-16T03:20:31;3.97;;;2.30;;
60088;SDS011;45961;53.574;55.878;2023-04-16T03:22:33;4.60;;;1.98;;
60088;SDS011;45961;53.574;55.878;2023-04-16T03:23:34;4.00;;;1.90;;
60088;SDS011;45961;53.574;55.878;2023-04-16T03:24:35;5.75;;;1.85;;
60088;SDS011;45961;53.574;55.878;2023-04-16T03:25:37;2.60;;;2.03;;
60088;SDS011;45961;53.574;55.878;2023-04-16T03:26:41;3.75;;;2.05;;
60088;SDS011;45961;53.574;55.878;2023-04-16T03:27:43;4.90;;;1.83;;
60088;SDS011;45961;53.574;55.878;2023-04-16T03:28:45;3.47;;;1.98;;
60088;SDS011;45961;53.574;55.878;2023-04-16T03:29:47;4.93;;;2.03;;
60088;SDS011;45961;53.574;55.878;2023-04-16T03:30:51;2.45;;;1.73;;
60088;SDS011;45961;53.574;55.878;2023-04-16T03:31:53;3.58;;;2.28;;
60088;SDS011;45961;53.574;55.878;2023-04-16T03:32:55;3.75;;;2.35;;
60088;SDS011;45961;53.574;55.878;2023-04-16T03:34:57;4.53;;;1.85;;
60088;SDS011;45961;53.574;55.878;2023-04-16T03:37:03;5.28;;;2.00;;
60088;SDS011;45961;53.574;55.878;2023-04-16T03:38:05;2.83;;;2.30;;
60088;SDS011;45961;53.574;55.878;2023-04-16T03:39:06;5.70;;;2.17;;
60088;SDS011;45961;53.574;55.878;2023-04-16T03:40:07;5.30;;;3.22;;
60088;SDS011;45961;53.574;55.878;2023-04-16T03:41:08;3.38;;;1.67;;
60088;SDS011;45961;53.574;55.878;2023-04-16T03:42:10;2.80;;;1.80;;
60088;SDS011;45961;53.574;55.878;2023-04-16T03:43:11;2.80;;;1.80;;
60088;SDS011;45961;53.574;55.878;2023-04-16T03:44:13;4.80;;;2.03;;
60088;SDS011;45961;53.574;55.878;2023-04-16T03:45:14;4.07;;;2.60;;
60088;SDS011;45961;53.574;55.878;2023-04-16T03:46:17;3.30;;;2.45;;
60088;SDS011;45961;53.574;55.878;2023-04-16T03:47:19;3.97;;;2.20;;
60088;SDS011;45961;53.574;55.878;2023-04-16T03:48:21;4.43;;;2.22;;
60088;SDS011;45961;53.574;55.878;2023-04-16T03:49:22;13.80;;;2.00;;
60088;SDS011;45961;53.574;55.878;2023-04-16T03:50:23;2.17;;;1.83;;
60088;SDS011;45961;53.574;55.878;2023-04-16T03:51:24;8.88;;;2.15;;
60088;SDS011;45961;53.574;55.878;2023-04-16T03:52:26;3.47;;;1.65;;
60088;SDS011;45961;53.574;55.878;2023-04-16T03:53:28;3.45;;;2.20;;
60088;SDS011;45961;53.574;55.878;2023-04-16T03:54:29;2.40;;;1.85;;
60088;SDS011;45961;53.574;55.878;2023-04-16T03:55:40;2.92;;;2.03;;
60088;SDS011;45961;53.574;55.878;2023-04-16T03:56:43;2.75;;;1.80;;
60088;SDS011;45961;53.574;55.878;2023-04-16T03:57:43;3.15;;;1.73;;
60088;SDS011;45961;53.574;55.878;2023-04-16T03:58:47;2.75;;;1.83;;
60088;SDS011;45961;53.574;55.878;2023-04-16T03:59:48;2.28;;;1.80;;
60088;SDS011;45961;53.574;55.878;2023-04-16T04:00:53;6.70;;;2.00;;
60088;SDS011;45961;53.574;55.878;2023-04-16T04:01:55;4.65;;;2.17;;
60088;SDS011;45961;53.574;55.878;2023-04-16T04:02:56;3.85;;;1.75;;
60088;SDS011;45961;53.574;55.878;2023-04-16T04:03:57;5.78;;;1.95;;
60088;SDS011;45961;53.574;55.878;2023-04-16T04:04:58;2.60;;;1.60;;
60088;SDS011;45961;53.574;55.878;2023-04-16T04:05:59;3.42;;;1.65;;
60088;SDS011;45961;53.574;55.878;2023-04-16T04:07:03;5.07;;;1.67;;
60088;SDS011;45961;53.574;55.878;2023-04-16T04:09:06;12.65;;;2.30;;
60088;SDS011;45961;53.574;55.878;2023-04-16T04:10:07;5.60;;;2.45;;
60088;SDS011;45961;53.574;55.878;2023-04-16T04:11:12;7.90;;;2.10;;
60088;SDS011;45961;53.574;55.878;2023-04-16T04:12:16;4.57;;;2.00;;
60088;SDS011;45961;53.574;55.878;2023-04-16T04:13:18;4.35;;;2.00;;
60088;SDS011;45961;53.574;55.878;2023-04-16T04:14:19;4.80;;;2.10;;
60088;SDS011;45961;53.574;55.878;2023-04-16T04:15:20;6.35;;;2.28;;
60088;SDS011;45961;53.574;55.878;2023-04-16T04:16:21;2.67;;;2.00;;
60088;SDS011;45961;53.574;55.878;2023-04-16T04:17:24;2.88;;;1.73;;
60088;SDS011;45961;53.574;55.878;2023-04-16T04:18:25;2.78;;;1.75;;
60088;SDS011;45961;53.574;55.878;2023-04-16T04:19:26;3.35;;;1.83;;
60088;SDS011;45961;53.574;55.878;2023-04-16T04:20:27;2.22;;;1.63;;
60088;SDS011;45961;53.574;55.878;2023-04-16T04:21:29;5.40;;;1.80;;
60088;SDS011;45961;53.574;55.878;2023-04-16T04:22:31;3.35;;;1.95;;
60088;SDS011;45961;53.574;55.878;2023-04-16T04:23:33;3.28;;;2.20;;
60088;SDS011;45961;53.574;55.878;2023-04-16T04:24:34;5.65;;;2.05;;
60088;SDS011;45961;53.574;55.878;2023-04-16T04:25:35;6.75;;;2.05;;
60088;SDS011;45961;53.574;55.878;2023-04-16T04:26:36;4.55;;;2.40;;
60088;SDS011;45961;53.574;55.878;2023-04-16T04:27:39;5.88;;;2.40;;
60088;SDS011;45961;53.574;55.878;2023-04-16T04:28:40;3.00;;;2.17;;
60088;SDS011;45961;53.574;55.878;2023-04-16T04:29:41;4.00;;;2.00;;
60088;SDS011;45961;53.574;55.878;2023-04-16T04:30:42;3.53;;;1.80;;
60088;SDS011;45961;53.574;55.878;2023-04-16T04:31:43;3.47;;;1.83;;
60088;SDS011;45961;53.574;55.878;2023-04-16T04:32:44;3.95;;;2.05;;
60088;SDS011;45961;53.574;55.878;2023-04-16T04:33:46;4.68;;;2.22;;
60088;SDS011;45961;53.574;55.878;2023-04-16T04:34:47;4.57;;;2.20;;
60088;SDS011;45961;53.574;55.878;2023-04-16T04:35:49;3.70;;;2.05;;
60088;SDS011;45961;53.574;55.878;2023-04-16T04:36:50;7.22;;;2.97;;
60088;SDS011;45961;53.574;55.878;2023-04-16T04:37:51;4.97;;;2.38;;
60088;SDS011;45961;53.574;55.878;2023-04-16T04:38:53;4.22;;;2.50;;
60088;SDS011;45961;53.574;55.878;2023-04-16T04:39:55;3.78;;;2.47;;
60088;SDS011;45961;53.574;55.878;2023-04-16T04:40:56;5.97;;;2.60;;
60088;SDS011;45961;53.574;55.878;2023-04-16T04:42:00;4.05;;;2.65;;
60088;SDS011;45961;53.574;55.878;2023-04-16T04:43:02;4.15;;;2.65;;
60088;SDS011;45961;53.574;55.878;2023-04-16T04:44:03;4.15;;;2.50;;
60088;SDS011;45961;53.574;55.878;2023-04-16T04:45:05;5.50;;;2.83;;
60088;SDS011;45961;53.574;55.878;2023-04-16T04:46:08;9.50;;;2.47;;
60088;SDS011;45961;53.574;55.878;2023-04-16T04:47:09;6.53;;;2.40;;
60088;SDS011;45961;53.574;55.878;2023-04-16T04:48:10;4.22;;;2.13;;
60088;SDS011;45961;53.574;55.878;2023-04-16T04:49:11;17.08;;;3.30;;
60088;SDS011;45961;53.574;55.878;2023-04-16T04:51:14;5.18;;;2.60;;
60088;SDS011;45961;53.574;55.878;2023-04-16T04:52:17;4.60;;;2.83;;
60088;SDS011;45961;53.574;55.878;2023-04-16T04:53:20;3.80;;;2.60;;
60088;SDS011;45961;53.574;55.878;2023-04-16T04:54:21;4.68;;;2.95;;
60088;SDS011;45961;53.574;55.878;2023-04-16T04:55:22;4.90;;;2.80;;
60088;SDS011;45961;53.574;55.878;2023-04-16T04:56:24;4.60;;;2.63;;
60088;SDS011;45961;53.574;55.878;2023-04-16T04:57:25;8.00;;;3.28;;
60088;SDS011;45961;53.574;55.878;2023-04-16T04:58:28;3.65;;;2.42;;
60088;SDS011;45961;53.574;55.878;2023-04-16T04:59:29;4.38;;;2.80;;
60088;SDS011;45961;53.574;55.878;2023-04-16T05:01:32;4.55;;;2.67;;
60088;SDS011;45961;53.574;55.878;2023-04-16T05:02:33;9.18;;;3.25;;
60088;SDS011;45961;53.574;55.878;2023-04-16T05:03:34;5.90;;;2.88;;
60088;SDS011;45961;53.574;55.878;2023-04-16T05:04:35;5.32;;;2.90;;
60088;SDS011;45961;53.574;55.878;2023-04-16T05:05:37;7.15;;;3.47;;
60088;SDS011;45961;53.574;55.878;2023-04-16T05:06:40;4.25;;;3.75;;
60088;SDS011;45961;53.574;55.878;2023-04-16T05:07:41;7.95;;;7.03;;
60088;SDS011;45961;53.574;55.878;2023-04-16T05:08:42;5.68;;;4.03;;
60088;SDS011;45961;53.574;55.878;2023-04-16T05:09:43;6.90;;;5.15;;
60088;SDS011;45961;53.574;55.878;2023-04-16T05:10:44;4.68;;;4.15;;
60088;SDS011;45961;53.574;55.878;2023-04-16T05:11:45;3.78;;;3.00;;
60088;SDS011;45961;53.574;55.878;2023-04-16T05:12:46;8.27;;;3.10;;
60088;SDS011;45961;53.574;55.878;2023-04-16T05:13:50;5.20;;;3.70;;
60088;SDS011;45961;53.574;55.878;2023-04-16T05:14:51;5.82;;;2.47;;
60088;SDS011;45961;53.574;55.878;2023-04-16T05:15:52;5.75;;;2.13;;
60088;SDS011;45961;53.574;55.878;2023-04-16T05:16:53;3.28;;;2.58;;
60088;SDS011;45961;53.574;55.878;2023-04-16T05:17:54;5.65;;;2.10;;
60088;SDS011;45961;53.574;55.878;2023-04-16T05:18:55;3.40;;;2.00;;
60088;SDS011;45961;53.574;55.878;2023-04-16T05:19:57;4.75;;;2.15;;
60088;SDS011;45961;53.574;55.878;2023-04-16T05:20:59;5.70;;;2.13;;
60088;SDS011;45961;53.574;55.878;2023-04-16T05:22:00;3.08;;;1.50;;
60088;SDS011;45961;53.574;55.878;2023-04-16T05:24:06;2.42;;;1.73;;
60088;SDS011;45961;53.574;55.878;2023-04-16T05:25:07;2.50;;;1.38;;
60088;SDS011;45961;53.574;55.878;2023-04-16T05:26:08;4.65;;;1.80;;
60088;SDS011;45961;53.574;55.878;2023-04-16T05:27:09;5.20;;;1.52;;
60088;SDS011;45961;53.574;55.878;2023-04-16T05:28:10;3.53;;;2.05;;
60088;SDS011;45961;53.574;55.878;2023-04-16T05:29:11;1.92;;;1.33;;
60088;SDS011;45961;53.574;55.878;2023-04-16T05:30:12;3.38;;;1.52;;
60088;SDS011;45961;53.574;55.878;2023-04-16T05:31:13;4.07;;;1.65;;
60088;SDS011;45961;53.574;55.878;2023-04-16T05:32:14;2.67;;;1.73;;
60088;SDS011;45961;53.574;55.878;2023-04-16T05:33:15;4.30;;;2.70;;
60088;SDS011;45961;53.574;55.878;2023-04-16T05:34:16;3.83;;;3.15;;
60088;SDS011;45961;53.574;55.878;2023-04-16T05:35:18;1.65;;;1.30;;
60088;SDS011;45961;53.574;55.878;2023-04-16T05:36:18;3.08;;;1.60;;
60088;SDS011;45961;53.574;55.878;2023-04-16T05:37:20;1.83;;;1.48;;
60088;SDS011;45961;53.574;55.878;2023-04-16T05:38:21;3.05;;;1.90;;
60088;SDS011;45961;53.574;55.878;2023-04-16T05:39:22;8.25;;;3.97;;
60088;SDS011;45961;53.574;55.878;2023-04-16T05:40:23;1.90;;;1.58;;
60088;SDS011;45961;53.574;55.878;2023-04-16T05:41:24;5.85;;;3.58;;
60088;SDS011;45961;53.574;55.878;2023-04-16T05:42:25;6.00;;;4.50;;
60088;SDS011;45961;53.574;55.878;2023-04-16T05:43:26;9.15;;;5.93;;
60088;SDS011;45961;53.574;55.878;2023-04-16T05:44:27;8.32;;;4.28;;
60088;SDS011;45961;53.574;55.878;2023-04-16T05:45:28;8.15;;;3.88;;
60088;SDS011;45961;53.574;55.878;2023-04-16T05:46:30;5.43;;;3.53;;
60088;SDS011;45961;53.574;55.878;2023-04-16T05:47:31;5.68;;;4.75;;
60088;SDS011;45961;53.574;55.878;2023-04-16T05:48:32;5.78;;;3.40;;
60088;SDS011;45961;53.574;55.878;2023-04-16T05:49:34;3.88;;;2.47;;
60088;SDS011;45961;53.574;55.878;2023-04-16T05:50:36;3.83;;;2.80;;
60088;SDS011;45961;53.574;55.878;2023-04-16T05:51:37;3.58;;;1.90;;
60088;SDS011;45961;53.574;55.878;2023-04-16T05:52:39;2.53;;;1.63;;
60088;SDS011;45961;53.574;55.878;2023-04-16T05:53:41;3.78;;;1.40;;
60088;SDS011;45961;53.574;55.878;2023-04-16T05:54:42;1.77;;;1.38;;
60088;SDS011;45961;53.574;55.878;2023-04-16T05:55:43;2.03;;;1.50;;
60088;SDS011;45961;53.574;55.878;2023-04-16T05:56:44;2.22;;;1.52;;
60088;SDS011;45961;53.574;55.878;2023-04-16T05:57:45;3.10;;;1.80;;
60088;SDS011;45961;53.574;55.878;2023-04-16T05:58:46;4.50;;;1.52;;
60088;SDS011;45961;53.574;55.878;2023-04-16T05:59:47;2.72;;;1.60;;
60088;SDS011;45961;53.574;55.878;2023-04-16T06:00:48;4.20;;;1.60;;
60088;SDS011;45961;53.574;55.878;2023-04-16T06:01:49;3.10;;;1.75;;
60088;SDS011;45961;53.574;55.878;2023-04-16T06:02:50;1.90;;;1.30;;
60088;SDS011;45961;53.574;55.878;2023-04-16T06:03:51;3.55;;;1.30;;
60088;SDS011;45961;53.574;55.878;2023-04-16T06:04:52;2.28;;;1.23;;
60088;SDS011;45961;53.574;55.878;2023-04-16T06:05:53;3.47;;;1.00;;
60088;SDS011;45961;53.574;55.878;2023-04-16T06:06:54;4.47;;;1.98;;
60088;SDS011;45961;53.574;55.878;2023-04-16T06:07:55;2.17;;;1.48;;
60088;SDS011;45961;53.574;55.878;2023-04-16T06:08:56;3.22;;;1.80;;
60088;SDS011;45961;53.574;55.878;2023-04-16T06:09:57;3.38;;;1.63;;
60088;SDS011;45961;53.574;55.878;2023-04-16T06:10:58;5.00;;;1.58;;
60088;SDS011;45961;53.574;55.878;2023-04-16T06:11:59;3.60;;;1.70;;
60088;SDS011;45961;53.574;55.878;2023-04-16T06:14:01;3.85;;;1.48;;
60088;SDS011;45961;53.574;55.878;2023-04-16T06:15:02;2.53;;;1.80;;
60088;SDS011;45961;53.574;55.878;2023-04-16T06:16:04;4.70;;;1.60;;
60088;SDS011;45961;53.574;55.878;2023-04-16T06:17:05;2.33;;;1.30;;
60088;SDS011;45961;53.574;55.878;2023-04-16T06:18:06;3.17;;;1.58;;
60088;SDS011;45961;53.574;55.878;2023-04-16T06:19:10;2.95;;;1.20;;
60088;SDS011;45961;53.574;55.878;2023-04-16T06:20:11;4.95;;;1.60;;
60088;SDS011;45961;53.574;55.878;2023-04-16T06:21:12;1.65;;;1.30;;
60088;SDS011;45961;53.574;55.878;2023-04-16T06:22:13;3.03;;;1.00;;
60088;SDS011;45961;53.574;55.878;2023-04-16T06:23:14;3.67;;;1.48;;
60088;SDS011;45961;53.574;55.878;2023-04-16T06:24:15;4.93;;;1.50;;
60088;SDS011;45961;53.574;55.878;2023-04-16T06:25:18;2.40;;;1.20;;
60088;SDS011;45961;53.574;55.878;2023-04-16T06:26:18;3.33;;;1.23;;
60088;SDS011;45961;53.574;55.878;2023-04-16T06:27:20;1.25;;;0.90;;
60088;SDS011;45961;53.574;55.878;2023-04-16T06:28:21;2.13;;;1.48;;
60088;SDS011;45961;53.574;55.878;2023-04-16T06:29:21;1.98;;;1.52;;